Aviation Digital Data Service (ADDS)

Output produced by METARs form (0604 UTC 25 June 2018)
found at http://www.aviationweather.gov/adds/metars/
 
OEAB 250500Z 06010KT CAVOK 25/00 Q1022 NOSIG
TAF OEAB 250500Z 2506/2515 09010KT 7000 FEW020 
     BECMG 2510/2512 20006G16KT 
     TEMPO 2510/2515 VRB20KT 4000 BLDU TSRA SCT020 FEW020CB
       
OEAH 250500Z 29015KT 9000 NSC 35/00 Q1003 NOSIG
TAF OEAH 242300Z 2500/2606 27010KT 6000 SKC 
     TEMPO 2500/2512 3000 DU BLDU 
     PROB40 
     TEMPO 2504/2512 2000 
     BECMG 2506/2508 33008G18KT
       
OEBA 250500Z 00000KT CAVOK 29/11 Q1018 NOSIG
TAF OEBA 242300Z 2500/2606 27006KT 7000 FEW030 
     BECMG 2506/2508 10013KT 
     TEMPO 2510/2518 FEW025CB SCT030 
     BECMG 2512/2514 27014KT
       
OESK 250500Z 22004KT CAVOK 30/05 Q1013
TAF OESK 242300Z 2500/2606 VRB03KT 7000 NSC 
     BECMG 2506/2508 10013KT
       
OERR 250500Z 02010KT CAVOK 32/14 Q1009 NOSIG
TAF OERR 242300Z 2500/2606 33006KT 7000 NSC 
     BECMG 2504/2506 06010KT 
     BECMG 2508/2510 26013KT
       
OEBH 250500Z 21002KT CAVOK 30/00 Q1013 NOSIG
TAF OEBH 242300Z 2500/2606 19006KT 8000 FEW030 
     BECMG 2506/2508 09013KT 
     TEMPO 2506/2516 5000 DU
       
OEGS 250500Z 27006KT CAVOK 32/12 Q1010
TAF OEGS 242300Z 2500/2606 VRB03KT 7000 SKC 
     BECMG 2506/2508 04014KT
       
OEGT 250500Z 28014KT CAVOK 22/12 Q1011 NOSIG
TAF OEGT 242300Z 2500/2606 30006G16KT 7000 SKC
       
OEHL 250500Z 24002KT CAVOK 31/05 Q1014
TAF OEHL 242300Z 2500/2606 VRB03KT CAVOK 
     BECMG 2508/2510 06013KT
       
OEGN 250500Z 35002KT 6000 NSC 34/26 Q1005 NOSIG
TAF OEGN 250500Z 2506/2515 27006G16KT 7000 FEW030 
     TEMPO 2506/2515 4000 DU BLDU SCT030 FEW035CB
       
OEDR 250600Z 31003KT CAVOK 37/03 Q1000 NOSIG
TAF OEDR 250219Z 2506/2612 35015KT CAVOK 
     BECMG 2517/2519 VRB05KT 
     PROB30 
     TEMPO 2602/2605 5000 HZ NSC
       
OEJN 250600Z 32007KT 9999 FEW040 31/27 Q1002 NOSIG
TAF OEJN 250500Z 2506/2612 33016KT 9999 FEW040 
     BECMG 2518/2520 36006KT
       
OEDF 250500Z 31010KT CAVOK 35/05 Q1001 NOSIG
TAF OEDF 250219Z 2506/2612 35015KT CAVOK 
     BECMG 2517/2519 VRB05KT 
     PROB30 
     TEMPO 2602/2605 5000 HZ NSC
       
OEKM 250500Z 11007KT 7000 SKC 26/M02 Q1022 NOSIG
TAF OEKM 250500Z 2506/2515 09010KT 7000 FEW020 
     BECMG 2510/2512 20006G16KT 
     TEMPO 2510/2515 VRB20KT 4000 BLDU TSRA SCT020 FEW020CB
       
OERK 250500Z 31004KT 8000 NSC 34/M01 Q1010 NOSIG
TAF OERK 250500Z 2506/2612 35006G16KT 7000 NSC 
     TEMPO 2506/2512 4000 DU BLDU
       
TAF OEKK 250500Z 2506/2520 35010G20KT 7000 NSC 
     TEMPO 2506/2516 3000 DU BLDU 
     PROB30 
     TEMPO 2508/2514 1500
       
OENG 250500Z 00000KT 8000 SKC 31/02 Q1014 NOSIG
TAF OENG 242300Z 2500/2606 28006KT 7000 FEW030 SCT100 
     BECMG 2506/2508 09013KT 
     TEMPO 2506/2516 4000 DU SCT030 
     PROB30 
     TEMPO 2510/2516 FEW035CB
       
OEMA 250600Z 13004KT CAVOK 37/M07 Q1011 NOSIG
TAF OEMA 250500Z 2506/2612 12012KT 7000 NSC 
     TEMPO 2506/2512 4000 DU 
     BECMG 2511/2513 02008KT
       
OEPA 250500Z 31007KT CAVOK 33/14 Q1006 NOSIG
TAF OEPA 242300Z 2500/2606 28006KT 7000 SKC 
     TEMPO 2500/2512 4000 DU BLDU 
     BECMG 2506/2508 33010G20KT 
     PROB30 
     TEMPO 2506/2512 1500
       
OERF 250500Z 30005KT CAVOK 32/03 Q1007
TAF OERF 242300Z 2500/2606 VRB03KT 7000 SKC 
     BECMG 2506/2508 34006G16KT 
     TEMPO 2506/2516 4000 DU BLDU
       
TAF OERY 242300Z 2500/2606 VRB03KT 8000 SKC 
     TEMPO 2500/2512 4000 DU BLDU 
     BECMG 2506/2508 33015KT
       
OESH 250500Z 10013KT 6000 SKC 30/09 Q1009 NOSIG
TAF OESH 242300Z 2500/2606 VRB03KT 7000 FEW040 SCT100 
     TEMPO 2500/2512 4000 DU SCT040 
     BECMG 2506/2508 09013KT
       
OETB 250500Z 01006KT CAVOK 27/10 Q1011 NOSIG
TAF OETB 250500Z 2506/2515 03006G16KT 7000 FEW040 
     BECMG 2511/2513 33008KT
       
OETF 250500Z 17004KT CAVOK 30/04 Q1017 NOSIG
TAF OETF 250500Z 2506/2524 11006G16KT 7000 FEW030 
     TEMPO 2506/2514 VRB20KT 4000 BLDU TSRA FEW025CB SCT030
       
OETR 250500Z 33004KT CAVOK 25/11 Q1012
TAF OETR 242300Z 2500/2606 33006KT 7000 NSC 
     BECMG 2506/2508 24013KT
       
OEWD 250500Z 32002KT CAVOK 32/11 Q1008 NOSIG
TAF OEWD 242300Z 2500/2606 26010KT 6000 NSC 
     BECMG 2510/2512 36013KT
       
OEWJ 250500Z 29009KT CAVOK 32/27 Q1004 NOSIG
TAF OEWJ 242300Z 2500/2606 02006KT 7000 NSC 
     BECMG 2506/2508 30010G20KT
       
OEYN 250500Z 17006KT CAVOK 31/24 Q1001 NOSIG
TAF OEYN 250500Z 2506/2515 09010KT 7000 FEW040 
     BECMG 2507/2509 25006G16KT 
     TEMPO 2508/2514 4000 DU BLDU